Time,TemperatureF,DewpointF,PressureIn,WindDirection,WindDirectionDegrees,WindSpeedMPH,WindSpeedGustMPH,Humidity,HourlyPrecipIn,Conditions,Clouds,dailyrainin,SoftwareType,DateUTC
2013-08-15 00:04:00,77.5,69.0,29.97,ESE,110,0.0,7.0,75,0.00,,---,0.00,VWS V14.01,2013-08-15 05:04:00,
2013-08-15 00:09:00,77.6,69.1,29.97,ENE,69,0.0,4.0,75,0.00,,---,0.00,VWS V14.01,2013-08-15 05:09:00,
2013-08-15 00:14:00,77.5,69.0,29.97,ENE,61,0.0,4.0,75,0.00,,---,0.00,VWS V14.01,2013-08-15 05:14:00,
2013-08-15 00:19:00,77.3,68.8,29.96,East,79,0.0,3.0,75,0.00,,---,0.00,VWS V14.01,2013-08-15 05:19:00,
2013-08-15 00:24:00,77.3,69.2,29.97,East,82,0.0,5.0,76,0.00,,---,0.00,VWS V14.01,2013-08-15 05:24:00,
2013-08-15 00:29:00,77.3,69.2,29.97,East,84,2.0,7.0,76,0.00,,---,0.00,VWS V14.01,2013-08-15 05:29:00,
2013-08-15 00:34:00,77.1,69.0,29.97,East,97,2.0,6.0,76,0.00,,---,0.00,VWS V14.01,2013-08-15 05:34:00,
2013-08-15 00:39:00,77.1,69.0,29.97,ENE,68,0.0,4.0,76,0.00,,---,0.00,VWS V14.01,2013-08-15 05:39:00,
2013-08-15 00:44:00,77.0,68.9,29.97,East,88,5.0,6.0,76,0.00,,---,0.00,VWS V14.01,2013-08-15 05:44:00,
2013-08-15 00:49:00,76.9,68.8,29.97,East,98,7.0,8.0,76,0.00,,---,0.00,VWS V14.01,2013-08-15 05:49:00,
2013-08-15 00:54:00,76.9,68.8,29.97,East,92,1.0,7.0,76,0.00,,---,0.00,VWS V14.01,2013-08-15 05:54:00,
2013-08-15 00:59:00,76.8,68.7,29.96,ENE,68,3.0,8.0,76,0.00,,---,0.00,VWS V14.01,2013-08-15 05:59:00,
2013-08-15 01:05:00,76.7,68.6,29.96,ESE,114,2.0,7.0,76,0.00,,---,0.00,VWS V14.01,2013-08-15 06:05:00,
2013-08-15 01:10:00,76.7,68.6,29.95,ENE,78,1.0,5.0,76,0.00,,---,0.00,VWS V14.01,2013-08-15 06:10:00,
2013-08-15 01:15:00,76.5,68.4,29.95,ESE,103,3.0,5.0,76,0.00,,---,0.00,VWS V14.01,2013-08-15 06:15:00,
2013-08-15 01:20:00,76.4,68.7,29.96,ENE,60,0.0,5.0,77,0.00,,---,0.00,VWS V14.01,2013-08-15 06:20:00,
2013-08-15 01:25:00,76.3,68.6,29.95,ENE,73,1.0,5.0,77,0.00,,---,0.00,VWS V14.01,2013-08-15 06:25:00,
2013-08-15 01:30:00,76.3,68.6,29.95,ENE,67,5.0,6.0,77,0.00,,---,0.00,VWS V14.01,2013-08-15 06:30:00,
2013-08-15 01:35:00,76.2,68.5,29.95,ESE,120,0.0,4.0,77,0.00,,---,0.00,VWS V14.01,2013-08-15 06:35:00,
2013-08-15 01:40:00,76.1,68.4,29.96,NE,56,4.0,5.0,77,0.00,,---,0.00,VWS V14.01,2013-08-15 06:40:00,
2013-08-15 01:45:00,76.1,68.4,29.96,ENE,72,1.0,2.0,77,0.00,,---,0.00,VWS V14.01,2013-08-15 06:45:00,
2013-08-15 01:50:00,76.1,68.4,29.96,ENE,63,2.0,2.0,77,0.00,,---,0.00,VWS V14.01,2013-08-15 06:50:00,
2013-08-15 01:56:00,76.0,68.3,29.96,ENE,62,0.0,2.0,77,0.00,,---,0.00,VWS V14.01,2013-08-15 06:56:00,
2013-08-15 02:01:00,76.0,68.7,29.96,ENE,62,1.0,3.0,78,0.00,,---,0.00,VWS V14.01,2013-08-15 07:01:00,
2013-08-15 02:06:00,75.8,68.5,29.96,ENE,64,0.0,3.0,78,0.00,,---,0.00,VWS V14.01,2013-08-15 07:06:00,
2013-08-15 02:11:00,75.7,68.4,29.96,ENE,65,0.0,2.0,78,0.00,,---,0.00,VWS V14.01,2013-08-15 07:11:00,
2013-08-15 02:16:00,75.7,68.4,29.95,East,87,0.0,5.0,78,0.00,,---,0.00,VWS V14.01,2013-08-15 07:16:00,
2013-08-15 02:21:00,75.7,68.4,29.96,East,81,0.0,3.0,78,0.00,,---,0.00,VWS V14.01,2013-08-15 07:21:00,
2013-08-15 02:26:00,75.7,68.4,29.96,East,80,1.0,3.0,78,0.00,,---,0.00,VWS V14.01,2013-08-15 07:26:00,
2013-08-15 02:31:00,75.7,68.7,29.96,East,80,0.0,0.0,79,0.00,,---,0.00,VWS V14.01,2013-08-15 07:31:00,
2013-08-15 02:36:00,75.7,68.4,29.96,East,80,3.0,5.0,78,0.00,,---,0.00,VWS V14.01,2013-08-15 07:36:00,
2013-08-15 02:41:00,75.8,68.5,29.96,ENE,78,0.0,1.0,78,0.00,,---,0.00,VWS V14.01,2013-08-15 07:41:00,
2013-08-15 02:46:00,75.8,68.1,29.96,East,81,1.0,5.0,77,0.00,,---,0.00,VWS V14.01,2013-08-15 07:46:00,
2013-08-15 02:51:00,75.6,68.3,29.96,ENE,57,1.0,4.0,78,0.00,,---,0.00,VWS V14.01,2013-08-15 07:51:00,
2013-08-15 02:57:00,75.5,68.2,29.96,ENE,60,0.0,1.0,78,0.00,,---,0.00,VWS V14.01,2013-08-15 07:57:00,
2013-08-15 03:02:00,75.3,68.3,29.96,ENE,60,0.0,0.0,79,0.00,,---,0.00,VWS V14.01,2013-08-15 08:02:00,
2013-08-15 03:07:00,75.1,68.2,29.96,ENE,60,0.0,0.0,79,0.00,,---,0.00,VWS V14.01,2013-08-15 08:07:00,
2013-08-15 03:12:00,74.8,68.2,29.97,ENE,60,0.0,0.0,80,0.00,,---,0.00,VWS V14.01,2013-08-15 08:12:00,
2013-08-15 03:17:00,74.6,68.4,29.97,ENE,59,0.0,3.0,81,0.00,,---,0.00,VWS V14.01,2013-08-15 08:17:00,
2013-08-15 03:22:00,74.3,67.7,29.97,NE,49,0.0,4.0,80,0.00,,---,0.00,VWS V14.01,2013-08-15 08:22:00,
2013-08-15 03:27:00,74.2,67.6,29.97,NE,46,0.0,2.0,80,0.00,,---,0.00,VWS V14.01,2013-08-15 08:27:00,
2013-08-15 03:32:00,74.1,67.5,29.97,NE,46,0.0,3.0,80,0.00,,---,0.00,VWS V14.01,2013-08-15 08:32:00,
2013-08-15 03:37:00,73.9,67.7,29.97,NE,46,0.0,0.0,81,0.00,,---,0.00,VWS V14.01,2013-08-15 08:37:00,
2013-08-15 03:42:00,73.5,67.3,29.97,NE,46,0.0,0.0,81,0.00,,---,0.00,VWS V14.01,2013-08-15 08:42:00,
2013-08-15 03:47:00,73.2,67.0,29.97,NE,46,1.0,3.0,81,0.00,,---,0.00,VWS V14.01,2013-08-15 08:47:00,
2013-08-15 03:52:00,73.1,67.3,29.97,NE,46,0.0,2.0,82,0.00,,---,0.00,VWS V14.01,2013-08-15 08:52:00,
2013-08-15 03:58:00,73.1,66.9,29.98,NE,46,3.0,3.0,81,0.00,,---,0.00,VWS V14.01,2013-08-15 08:58:00,
2013-08-15 04:03:00,73.3,67.1,29.98,NE,34,2.0,4.0,81,0.00,,---,0.00,VWS V14.01,2013-08-15 09:03:00,
2013-08-15 04:08:00,73.3,67.1,29.98,NNE,32,3.0,4.0,81,0.00,,---,0.00,VWS V14.01,2013-08-15 09:08:00,
2013-08-15 04:13:00,73.3,67.1,29.98,NNE,32,3.0,3.0,81,0.00,,---,0.00,VWS V14.01,2013-08-15 09:13:00,
2013-08-15 04:18:00,73.1,66.9,29.98,NE,43,2.0,4.0,81,0.00,,---,0.00,VWS V14.01,2013-08-15 09:18:00,
2013-08-15 04:23:00,73.0,66.8,29.98,NE,41,1.0,4.0,81,0.00,,---,0.00,VWS V14.01,2013-08-15 09:23:00,
2013-08-15 04:28:00,72.8,66.6,29.98,NNE,32,4.0,6.0,81,0.00,,---,0.00,VWS V14.01,2013-08-15 09:28:00,
2013-08-15 04:33:00,72.8,66.6,29.98,NE,42,4.0,5.0,81,0.00,,---,0.00,VWS V14.01,2013-08-15 09:33:00,
2013-08-15 04:38:00,72.6,66.4,29.98,NE,42,1.0,2.0,81,0.00,,---,0.00,VWS V14.01,2013-08-15 09:38:00,
2013-08-15 04:43:00,72.5,66.3,29.98,NE,42,0.0,0.0,81,0.00,,---,0.00,VWS V14.01,2013-08-15 09:43:00,
2013-08-15 04:48:00,72.4,65.9,29.97,NE,47,0.0,3.0,80,0.00,,---,0.00,VWS V14.01,2013-08-15 09:48:00,
2013-08-15 04:54:00,72.4,65.9,29.97,NE,52,2.0,3.0,80,0.00,,---,0.00,VWS V14.01,2013-08-15 09:54:00,
2013-08-15 04:59:00,72.4,65.9,29.97,NE,52,2.0,2.0,80,0.00,,---,0.00,VWS V14.01,2013-08-15 09:59:00,
2013-08-15 05:04:00,72.4,65.9,29.97,ENE,58,1.0,4.0,80,0.00,,---,0.00,VWS V14.01,2013-08-15 10:04:00,
2013-08-15 05:09:00,72.4,65.5,29.97,ENE,69,1.0,5.0,79,0.00,,---,0.00,VWS V14.01,2013-08-15 10:09:00,
2013-08-15 05:14:00,72.3,65.4,29.97,ENE,65,0.0,3.0,79,0.00,,---,0.00,VWS V14.01,2013-08-15 10:14:00,
2013-08-15 05:19:00,72.2,65.3,29.97,ENE,61,2.0,5.0,79,0.00,,---,0.00,VWS V14.01,2013-08-15 10:19:00,
2013-08-15 05:24:00,72.1,65.2,29.98,ENE,78,0.0,3.0,79,0.00,,---,0.00,VWS V14.01,2013-08-15 10:24:00,
2013-08-15 05:29:00,72.0,65.1,29.98,East,80,0.0,2.0,79,0.00,,---,0.00,VWS V14.01,2013-08-15 10:29:00,
2013-08-15 05:34:00,71.9,65.0,29.98,ENE,78,4.0,5.0,79,0.00,,---,0.00,VWS V14.01,2013-08-15 10:34:00,
2013-08-15 05:39:00,71.9,65.0,29.98,East,92,0.0,0.0,79,0.00,,---,0.00,VWS V14.01,2013-08-15 10:39:00,
2013-08-15 05:44:00,71.8,64.6,29.98,ENE,69,1.0,5.0,78,0.00,,---,0.00,VWS V14.01,2013-08-15 10:44:00,
2013-08-15 05:50:00,71.8,64.9,29.98,ENE,65,2.0,5.0,79,0.00,,---,0.00,VWS V14.01,2013-08-15 10:50:00,
2013-08-15 05:55:00,71.7,64.8,29.99,ENE,65,0.0,0.0,79,0.00,,---,0.00,VWS V14.01,2013-08-15 10:55:00,
2013-08-15 06:00:00,71.6,64.8,29.98,ENE,65,0.0,0.0,79,0.00,,---,0.00,VWS V14.01,2013-08-15 11:00:00,
2013-08-15 06:05:00,71.4,64.9,29.98,ENE,66,0.0,3.0,80,0.00,,---,0.00,VWS V14.01,2013-08-15 11:05:00,
2013-08-15 06:10:00,71.3,64.8,29.98,ENE,57,0.0,4.0,80,0.00,,---,0.00,VWS V14.01,2013-08-15 11:10:00,
2013-08-15 06:15:00,71.0,64.5,29.99,NE,54,2.0,4.0,80,0.00,,---,0.00,VWS V14.01,2013-08-15 11:15:00,
2013-08-15 06:20:00,70.8,64.3,29.98,ENE,61,3.0,3.0,80,0.00,,---,0.00,VWS V14.01,2013-08-15 11:20:00,
2013-08-15 06:25:00,70.7,64.2,29.99,ENE,66,0.0,4.0,80,0.00,,---,0.00,VWS V14.01,2013-08-15 11:25:00,
2013-08-15 06:30:00,70.5,64.0,29.99,ENE,66,0.0,2.0,80,0.00,,---,0.00,VWS V14.01,2013-08-15 11:30:00,
2013-08-15 06:35:00,70.4,63.9,29.99,ENE,66,0.0,3.0,80,0.00,,---,0.00,VWS V14.01,2013-08-15 11:35:00,
2013-08-15 06:40:00,70.3,63.8,29.99,ENE,66,0.0,0.0,80,0.00,,---,0.00,VWS V14.01,2013-08-15 11:40:00,
2013-08-15 06:45:00,70.2,63.8,29.99,NE,55,0.0,7.0,80,0.00,,---,0.00,VWS V14.01,2013-08-15 11:45:00,
2013-08-15 06:50:00,70.1,63.7,30.00,NE,46,3.0,5.0,80,0.00,,---,0.00,VWS V14.01,2013-08-15 11:50:00,
2013-08-15 06:56:00,70.1,63.3,30.00,NE,51,0.0,4.0,79,0.00,,---,0.00,VWS V14.01,2013-08-15 11:56:00,
2013-08-15 07:01:00,70.2,63.4,30.00,NE,52,5.0,7.0,79,0.00,,---,0.00,VWS V14.01,2013-08-15 12:01:00,
2013-08-15 07:06:00,70.1,63.3,30.00,ENE,62,0.0,7.0,79,0.00,,---,0.00,VWS V14.01,2013-08-15 12:06:00,
2013-08-15 07:11:00,69.9,63.5,30.00,ENE,62,1.0,3.0,80,0.00,,---,0.00,VWS V14.01,2013-08-15 12:11:00,
2013-08-15 07:16:00,69.7,63.3,30.00,ENE,62,1.0,4.0,80,0.00,,---,0.00,VWS V14.01,2013-08-15 12:16:00,
2013-08-15 07:21:00,69.8,63.4,30.01,NE,52,0.0,6.0,80,0.00,,---,0.00,VWS V14.01,2013-08-15 12:21:00,
2013-08-15 07:26:00,69.9,63.5,30.01,NE,42,0.0,4.0,80,0.00,,---,0.00,VWS V14.01,2013-08-15 12:26:00,
2013-08-15 07:31:00,70.2,63.4,30.01,East,82,1.0,6.0,79,0.00,,---,0.00,VWS V14.01,2013-08-15 12:31:00,
2013-08-15 07:36:00,70.4,63.2,30.01,East,83,3.0,7.0,78,0.00,,---,0.00,VWS V14.01,2013-08-15 12:36:00,
2013-08-15 07:41:00,70.5,63.3,30.01,East,90,1.0,5.0,78,0.00,,---,0.00,VWS V14.01,2013-08-15 12:41:00,
2013-08-15 07:46:00,70.6,63.0,30.02,ENE,68,4.0,8.0,77,0.00,,---,0.00,VWS V14.01,2013-08-15 12:46:00,
2013-08-15 07:52:00,70.7,62.8,30.02,ENE,63,1.0,7.0,76,0.00,,---,0.00,VWS V14.01,2013-08-15 12:52:00,
2013-08-15 07:57:00,70.8,63.2,30.02,ENE,64,1.0,3.0,77,0.00,,---,0.00,VWS V14.01,2013-08-15 12:57:00,
2013-08-15 08:02:00,71.0,63.1,30.02,ENE,78,3.0,9.0,76,0.00,,---,0.00,VWS V14.01,2013-08-15 13:02:00,
2013-08-15 08:07:00,70.9,63.0,30.02,East,81,2.0,6.0,76,0.00,,---,0.00,VWS V14.01,2013-08-15 13:07:00,
2013-08-15 08:12:00,71.1,62.8,30.02,East,87,6.0,8.0,75,0.00,,---,0.00,VWS V14.01,2013-08-15 13:12:00,
2013-08-15 08:17:00,71.3,63.0,30.02,East,86,3.0,5.0,75,0.00,,---,0.00,VWS V14.01,2013-08-15 13:17:00,
2013-08-15 08:22:00,71.3,63.0,30.02,ENE,66,1.0,8.0,75,0.00,,---,0.00,VWS V14.01,2013-08-15 13:22:00,
2013-08-15 08:27:00,71.4,62.7,30.03,East,92,6.0,7.0,74,0.00,,---,0.00,VWS V14.01,2013-08-15 13:27:00,
2013-08-15 08:32:00,71.7,63.0,30.03,ENE,77,1.0,5.0,74,0.00,,---,0.00,VWS V14.01,2013-08-15 13:32:00,
2013-08-15 08:37:00,71.7,62.6,30.03,East,84,6.0,8.0,73,0.00,,---,0.00,VWS V14.01,2013-08-15 13:37:00,
2013-08-15 08:43:00,71.6,62.5,30.03,NE,56,5.0,9.0,73,0.00,,---,0.00,VWS V14.01,2013-08-15 13:43:00,
2013-08-15 08:48:00,71.6,62.5,30.03,East,79,2.0,5.0,73,0.00,,---,0.00,VWS V14.01,2013-08-15 13:48:00,
2013-08-15 08:53:00,71.8,62.7,30.03,ENE,63,3.0,8.0,73,0.00,,---,0.00,VWS V14.01,2013-08-15 13:53:00,
2013-08-15 08:58:00,72.0,63.3,30.03,ENE,58,4.0,5.0,74,0.00,,---,0.00,VWS V14.01,2013-08-15 13:58:00,
2013-08-15 09:03:00,72.0,62.5,30.03,ENE,64,4.0,7.0,72,0.00,,---,0.00,VWS V14.01,2013-08-15 14:03:00,
2013-08-15 09:08:00,72.0,62.5,30.03,ENE,67,5.0,7.0,72,0.00,,---,0.00,VWS V14.01,2013-08-15 14:08:00,
2013-08-15 09:13:00,71.9,62.4,30.03,NE,45,3.0,6.0,72,0.00,,---,0.00,VWS V14.01,2013-08-15 14:13:00,
2013-08-15 09:18:00,71.9,62.8,30.03,NE,48,4.0,4.0,73,0.00,,---,0.00,VWS V14.01,2013-08-15 14:18:00,
2013-08-15 09:23:00,71.9,62.4,30.03,ENE,75,4.0,7.0,72,0.00,,---,0.00,VWS V14.01,2013-08-15 14:23:00,
2013-08-15 09:28:00,72.0,62.5,30.03,East,99,2.0,7.0,72,0.00,,---,0.00,VWS V14.01,2013-08-15 14:28:00,
2013-08-15 09:33:00,72.6,63.1,30.03,ESE,122,5.0,8.0,72,0.00,,---,0.00,VWS V14.01,2013-08-15 14:33:00,
2013-08-15 09:38:00,72.9,62.5,30.03,East,89,3.0,10.0,70,0.00,,---,0.00,VWS V14.01,2013-08-15 14:38:00,
2013-08-15 09:44:00,73.3,62.5,30.03,SE,125,9.0,12.0,69,0.00,,---,0.00,VWS V14.01,2013-08-15 14:44:00,
2013-08-15 09:49:00,73.5,62.3,30.03,SE,135,5.0,9.0,68,0.00,,---,0.00,VWS V14.01,2013-08-15 14:49:00,
2013-08-15 09:54:00,73.9,63.1,30.03,East,101,8.0,8.0,69,0.00,,---,0.00,VWS V14.01,2013-08-15 14:54:00,
2013-08-15 09:59:00,74.2,64.2,30.03,ESE,107,7.0,8.0,71,0.00,,---,0.00,VWS V14.01,2013-08-15 14:59:00,
2013-08-15 10:04:00,74.3,63.1,30.03,East,101,6.0,9.0,68,0.00,,---,0.00,VWS V14.01,2013-08-15 15:04:00,
2013-08-15 10:09:00,74.2,62.1,30.03,ESE,122,10.0,10.0,66,0.00,,---,0.00,VWS V14.01,2013-08-15 15:09:00,
2013-08-15 10:14:00,74.4,62.3,30.03,ESE,113,4.0,8.0,66,0.00,,---,0.00,VWS V14.01,2013-08-15 15:14:00,
2013-08-15 10:19:00,74.6,63.3,30.03,ESE,110,4.0,5.0,68,0.00,,---,0.00,VWS V14.01,2013-08-15 15:19:00,
2013-08-15 10:25:00,75.1,62.1,30.03,ESE,117,4.0,8.0,64,0.00,,---,0.00,VWS V14.01,2013-08-15 15:25:00,
2013-08-15 10:30:00,75.5,62.5,30.03,ESE,122,5.0,8.0,64,0.00,,---,0.00,VWS V14.01,2013-08-15 15:30:00,
2013-08-15 10:35:00,75.6,61.2,30.03,East,84,3.0,9.0,61,0.00,,---,0.00,VWS V14.01,2013-08-15 15:35:00,
2013-08-15 10:40:00,75.8,61.9,30.03,ESE,104,7.0,12.0,62,0.00,,---,0.00,VWS V14.01,2013-08-15 15:40:00,
2013-08-15 10:45:00,75.8,62.3,30.03,East,84,5.0,8.0,63,0.00,,---,0.00,VWS V14.01,2013-08-15 15:45:00,
2013-08-15 10:50:00,75.8,61.4,30.03,ESE,110,8.0,9.0,61,0.00,,---,0.00,VWS V14.01,2013-08-15 15:50:00,
2013-08-15 10:55:00,75.6,61.2,30.03,East,101,2.0,8.0,61,0.00,,---,0.00,VWS V14.01,2013-08-15 15:55:00,
2013-08-15 11:00:00,75.6,61.7,30.03,ESE,117,3.0,7.0,62,0.00,,---,0.00,VWS V14.01,2013-08-15 16:00:00,
2013-08-15 11:05:00,75.7,61.8,30.03,East,82,3.0,8.0,62,0.00,,---,0.00,VWS V14.01,2013-08-15 16:05:00,
2013-08-15 11:10:00,75.8,61.9,30.03,ENE,57,1.0,6.0,62,0.00,,---,0.00,VWS V14.01,2013-08-15 16:10:00,
2013-08-15 11:15:00,76.2,62.2,30.03,ENE,66,5.0,7.0,62,0.00,,---,0.00,VWS V14.01,2013-08-15 16:15:00,
2013-08-15 11:21:00,76.5,62.5,30.03,ESE,103,5.0,8.0,62,0.00,,---,0.00,VWS V14.01,2013-08-15 16:21:00,
2013-08-15 11:26:00,76.8,61.9,30.03,NNE,31,3.0,8.0,60,0.00,,---,0.00,VWS V14.01,2013-08-15 16:26:00,
2013-08-15 11:31:00,77.1,62.2,30.03,ENE,78,0.0,8.0,60,0.00,,---,0.00,VWS V14.01,2013-08-15 16:31:00,
2013-08-15 11:36:00,77.4,62.0,30.03,East,86,0.0,9.0,59,0.00,,---,0.00,VWS V14.01,2013-08-15 16:36:00,
2013-08-15 11:41:00,77.7,62.7,30.03,East,80,0.0,6.0,60,0.00,,---,0.00,VWS V14.01,2013-08-15 16:41:00,
2013-08-15 11:46:00,78.0,63.0,30.03,SE,136,4.0,7.0,60,0.00,,---,0.00,VWS V14.01,2013-08-15 16:46:00,
2013-08-15 11:52:00,78.0,62.0,30.03,ESE,122,8.0,10.0,58,0.00,,---,0.00,VWS V14.01,2013-08-15 16:52:00,
2013-08-15 11:57:00,77.8,62.3,30.02,East,96,2.0,8.0,59,0.00,,---,0.00,VWS V14.01,2013-08-15 16:57:00,
2013-08-15 12:02:00,78.4,63.8,30.02,ENE,66,3.0,9.0,61,0.00,,---,0.00,VWS V14.01,2013-08-15 17:02:00,
2013-08-15 12:07:00,79.1,64.0,30.02,South,173,0.0,7.0,60,0.00,,---,0.00,VWS V14.01,2013-08-15 17:07:00,
2013-08-15 12:12:00,79.3,63.7,30.02,ESE,103,0.0,5.0,59,0.00,,---,0.00,VWS V14.01,2013-08-15 17:12:00,
2013-08-15 12:17:00,79.2,62.2,30.02,ESE,123,0.0,5.0,56,0.00,,---,0.00,VWS V14.01,2013-08-15 17:17:00,
2013-08-15 12:22:00,79.3,63.3,30.02,ESE,113,0.0,4.0,58,0.00,,---,0.00,VWS V14.01,2013-08-15 17:22:00,
2013-08-15 12:27:00,79.6,63.5,30.02,ESE,114,3.0,5.0,58,0.00,,---,0.00,VWS V14.01,2013-08-15 17:27:00,
2013-08-15 12:32:00,79.8,62.7,30.01,SE,124,3.0,9.0,56,0.00,,---,0.00,VWS V14.01,2013-08-15 17:32:00,
2013-08-15 12:37:00,79.8,63.2,30.01,SE,140,4.0,5.0,57,0.00,,---,0.00,VWS V14.01,2013-08-15 17:37:00,
2013-08-15 12:42:00,80.2,63.6,30.01,ESE,112,3.0,6.0,57,0.00,,---,0.00,VWS V14.01,2013-08-15 17:42:00,
2013-08-15 12:47:00,80.4,63.3,30.01,ESE,115,3.0,11.0,56,0.00,,---,0.00,VWS V14.01,2013-08-15 17:47:00,
2013-08-15 12:52:00,80.1,63.5,30.01,ESE,107,2.0,9.0,57,0.00,,---,0.00,VWS V14.01,2013-08-15 17:52:00,
2013-08-15 12:58:00,80.4,64.3,30.01,ESE,117,2.0,5.0,58,0.00,,---,0.00,VWS V14.01,2013-08-15 17:58:00,
2013-08-15 13:03:00,81.0,63.8,30.01,ESE,109,0.0,3.0,56,0.00,,---,0.00,VWS V14.01,2013-08-15 18:03:00,
2013-08-15 13:08:00,81.4,64.2,30.01,ENE,76,3.0,7.0,56,0.00,,---,0.00,VWS V14.01,2013-08-15 18:08:00,
2013-08-15 13:14:00,81.2,64.0,30.01,ESE,121,3.0,7.0,56,0.00,,---,0.00,VWS V14.01,2013-08-15 18:14:00,
2013-08-15 13:19:00,81.5,64.8,30.01,ENE,71,0.0,7.0,57,0.00,,---,0.00,VWS V14.01,2013-08-15 18:19:00,
2013-08-15 13:24:00,81.7,65.0,30.01,SSE,152,2.0,4.0,57,0.00,,---,0.00,VWS V14.01,2013-08-15 18:24:00,
2013-08-15 13:29:00,81.6,64.4,30.00,SE,142,5.0,6.0,56,0.00,,---,0.00,VWS V14.01,2013-08-15 18:29:00,
2013-08-15 13:35:00,81.8,64.6,30.00,SSE,148,0.0,8.0,56,0.00,,---,0.00,VWS V14.01,2013-08-15 18:35:00,
2013-08-15 13:40:00,82.3,65.1,30.00,SE,143,0.0,5.0,56,0.00,,---,0.00,VWS V14.01,2013-08-15 18:40:00,
2013-08-15 13:45:00,82.4,64.6,29.99,SE,141,0.0,8.0,55,0.00,,---,0.00,VWS V14.01,2013-08-15 18:45:00,
2013-08-15 13:50:00,82.4,64.6,29.99,SE,135,4.0,5.0,55,0.00,,---,0.00,VWS V14.01,2013-08-15 18:50:00,
2013-08-15 13:55:00,82.3,65.1,29.99,SE,124,4.0,8.0,56,0.00,,---,0.00,VWS V14.01,2013-08-15 18:55:00,
2013-08-15 14:00:00,82.3,64.5,29.99,SSW,194,0.0,8.0,55,0.00,,---,0.00,VWS V14.01,2013-08-15 19:00:00,
2013-08-15 14:06:00,82.6,65.8,29.99,East,101,5.0,8.0,57,0.00,,---,0.00,VWS V14.01,2013-08-15 19:06:00,
2013-08-15 14:11:00,82.7,65.4,29.99,SE,134,6.0,8.0,56,0.00,,---,0.00,VWS V14.01,2013-08-15 19:11:00,
2013-08-15 14:16:00,82.8,65.0,29.98,SSE,150,2.0,5.0,55,0.00,,---,0.00,VWS V14.01,2013-08-15 19:16:00,
2013-08-15 14:21:00,83.3,66.0,29.98,SSE,156,2.0,6.0,56,0.00,,---,0.00,VWS V14.01,2013-08-15 19:21:00,
2013-08-15 14:26:00,83.6,65.7,29.98,SSE,147,1.0,7.0,55,0.00,,---,0.00,VWS V14.01,2013-08-15 19:26:00,
2013-08-15 14:31:00,83.4,65.0,29.98,SE,144,0.0,6.0,54,0.00,,---,0.00,VWS V14.01,2013-08-15 19:31:00,
2013-08-15 14:36:00,83.4,66.1,29.97,SE,127,6.0,9.0,56,0.00,,---,0.00,VWS V14.01,2013-08-15 19:36:00,
2013-08-15 14:41:00,83.7,65.8,29.97,SE,131,2.0,7.0,55,0.00,,---,0.00,VWS V14.01,2013-08-15 19:41:00,
2013-08-15 14:46:00,83.9,66.0,29.97,SE,142,2.0,4.0,55,0.00,,---,0.00,VWS V14.01,2013-08-15 19:46:00,
2013-08-15 14:51:00,83.8,66.4,29.97,ESE,123,3.0,7.0,56,0.00,,---,0.00,VWS V14.01,2013-08-15 19:51:00,
2013-08-15 14:57:00,83.9,66.5,29.97,SE,133,7.0,8.0,56,0.00,,---,0.00,VWS V14.01,2013-08-15 19:57:00,
2013-08-15 15:02:00,84.2,66.3,29.97,SE,142,0.0,7.0,55,0.00,,---,0.00,VWS V14.01,2013-08-15 20:02:00,
2013-08-15 15:08:00,84.5,66.6,29.97,SE,146,0.0,6.0,55,0.00,,---,0.00,VWS V14.01,2013-08-15 20:08:00,
2013-08-15 15:14:00,84.6,66.1,29.97,SSE,163,4.0,5.0,54,0.00,,---,0.00,VWS V14.01,2013-08-15 20:14:00,
2013-08-15 15:19:00,84.5,65.5,29.96,SSE,163,1.0,7.0,53,0.00,,---,0.00,VWS V14.01,2013-08-15 20:19:00,
2013-08-15 15:24:00,84.7,66.2,29.96,SE,126,6.0,8.0,54,0.00,,---,0.00,VWS V14.01,2013-08-15 20:24:00,
2013-08-15 15:30:00,84.7,66.2,29.95,East,85,0.0,7.0,54,0.00,,---,0.00,VWS V14.01,2013-08-15 20:30:00,
2013-08-15 15:35:00,85.1,67.1,29.95,ESE,110,3.0,5.0,55,0.00,,---,0.00,VWS V14.01,2013-08-15 20:35:00,
2013-08-15 15:40:00,85.2,66.7,29.95,SE,124,0.0,7.0,54,0.00,,---,0.00,VWS V14.01,2013-08-15 20:40:00,
2013-08-15 15:45:00,85.1,67.1,29.95,ESE,108,5.0,7.0,55,0.00,,---,0.00,VWS V14.01,2013-08-15 20:45:00,
2013-08-15 15:50:00,85.1,66.1,29.94,ESE,104,5.0,8.0,53,0.00,,---,0.00,VWS V14.01,2013-08-15 20:50:00,
2013-08-15 15:55:00,85.4,66.3,29.94,ESE,119,1.0,7.0,53,0.00,,---,0.00,VWS V14.01,2013-08-15 20:55:00,
2013-08-15 16:01:00,85.9,66.8,29.94,ENE,72,3.0,4.0,53,0.00,,---,0.00,VWS V14.01,2013-08-15 21:01:00,
2013-08-15 16:06:00,85.9,66.2,29.93,South,169,0.0,5.0,52,0.00,,---,0.00,VWS V14.01,2013-08-15 21:06:00,
2013-08-15 16:11:00,85.8,66.2,29.93,SSE,149,1.0,5.0,52,0.00,,---,0.00,VWS V14.01,2013-08-15 21:11:00,
2013-08-15 16:16:00,85.9,67.3,29.93,East,84,0.0,6.0,54,0.00,,---,0.00,VWS V14.01,2013-08-15 21:16:00,
2013-08-15 16:21:00,86.0,66.3,29.93,ENE,70,7.0,8.0,52,0.00,,---,0.00,VWS V14.01,2013-08-15 21:21:00,
2013-08-15 16:26:00,86.2,67.1,29.93,SE,138,6.0,6.0,53,0.00,,---,0.00,VWS V14.01,2013-08-15 21:26:00,
2013-08-15 16:32:00,86.3,66.6,29.93,SSE,154,3.0,5.0,52,0.00,,---,0.00,VWS V14.01,2013-08-15 21:32:00,
2013-08-15 16:37:00,86.4,66.2,29.93,ESE,120,3.0,3.0,51,0.00,,---,0.00,VWS V14.01,2013-08-15 21:37:00,
2013-08-15 16:42:00,86.4,66.7,29.93,SE,134,0.0,5.0,52,0.00,,---,0.00,VWS V14.01,2013-08-15 21:42:00,
2013-08-15 16:47:00,86.5,66.2,29.93,East,100,0.0,2.0,51,0.00,,---,0.00,VWS V14.01,2013-08-15 21:47:00,
2013-08-15 16:52:00,86.4,66.2,29.92,ESE,110,3.0,4.0,51,0.00,,---,0.00,VWS V14.01,2013-08-15 21:52:00,
2013-08-15 16:57:00,86.3,65.5,29.92,NNE,30,0.0,2.0,50,0.00,,---,0.00,VWS V14.01,2013-08-15 21:57:00,
2013-08-15 17:03:00,86.5,66.2,29.92,ESE,106,0.0,2.0,51,0.00,,---,0.00,VWS V14.01,2013-08-15 22:03:00,
2013-08-15 17:08:00,86.4,66.2,29.92,SE,124,0.0,2.0,51,0.00,,---,0.00,VWS V14.01,2013-08-15 22:08:00,
2013-08-15 17:13:00,86.2,66.0,29.91,ESE,109,0.0,3.0,51,0.00,,---,0.00,VWS V14.01,2013-08-15 22:13:00,
2013-08-15 17:18:00,86.0,65.8,29.91,NE,54,0.0,3.0,51,0.00,,---,0.00,VWS V14.01,2013-08-15 22:18:00,
2013-08-15 17:23:00,85.7,66.1,29.91,NE,53,0.0,5.0,52,0.00,,---,0.00,VWS V14.01,2013-08-15 22:23:00,
2013-08-15 17:29:00,85.6,66.0,29.91,ENE,58,0.0,1.0,52,0.00,,---,0.00,VWS V14.01,2013-08-15 22:29:00,
2013-08-15 17:34:00,85.6,66.5,29.92,ESE,109,0.0,3.0,53,0.00,,---,0.00,VWS V14.01,2013-08-15 22:34:00,
2013-08-15 17:39:00,85.6,67.1,29.92,ESE,109,0.0,0.0,54,0.00,,---,0.00,VWS V14.01,2013-08-15 22:39:00,
2013-08-15 17:44:00,85.5,67.0,29.92,ESE,109,0.0,1.0,54,0.00,,---,0.00,VWS V14.01,2013-08-15 22:44:00,
2013-08-15 17:49:00,85.5,67.0,29.92,East,95,0.0,2.0,54,0.00,,---,0.00,VWS V14.01,2013-08-15 22:49:00,
2013-08-15 17:54:00,85.5,66.4,29.91,East,95,0.0,2.0,53,0.00,,---,0.00,VWS V14.01,2013-08-15 22:54:00,
2013-08-15 17:59:00,85.6,66.0,29.91,East,95,0.0,0.0,52,0.00,,---,0.00,VWS V14.01,2013-08-15 22:59:00,
2013-08-15 18:05:00,85.9,67.3,29.91,East,95,0.0,0.0,54,0.00,,---,0.00,VWS V14.01,2013-08-15 23:05:00,
2013-08-15 18:10:00,86.1,67.0,29.92,East,95,0.0,0.0,53,0.00,,---,0.00,VWS V14.01,2013-08-15 23:10:00,
2013-08-15 18:15:00,86.0,66.9,29.92,NNE,30,0.0,2.0,53,0.00,,---,0.00,VWS V14.01,2013-08-15 23:15:00,
2013-08-15 18:20:00,85.6,66.5,29.92,NNE,29,0.0,3.0,53,0.00,,---,0.00,VWS V14.01,2013-08-15 23:20:00,
2013-08-15 18:25:00,85.3,65.7,29.92,NNE,29,0.0,2.0,52,0.00,,---,0.00,VWS V14.01,2013-08-15 23:25:00,
2013-08-15 18:31:00,85.2,67.2,29.92,NNE,29,0.0,0.0,55,0.00,,---,0.00,VWS V14.01,2013-08-15 23:31:00,
2013-08-15 18:36:00,85.1,67.1,29.92,NNE,29,0.0,0.0,55,0.00,,---,0.00,VWS V14.01,2013-08-15 23:36:00,
2013-08-15 18:41:00,85.1,67.1,29.92,NNE,30,0.0,0.0,55,0.00,,---,0.00,VWS V14.01,2013-08-15 23:41:00,
2013-08-15 18:46:00,85.1,66.6,29.92,NE,36,0.0,0.0,54,0.00,,---,0.00,VWS V14.01,2013-08-15 23:46:00,
2013-08-15 18:51:00,85.1,67.7,29.92,NE,40,0.0,0.0,56,0.00,,---,0.00,VWS V14.01,2013-08-15 23:51:00,
2013-08-15 18:56:00,85.0,67.0,29.92,NE,40,0.0,0.0,55,0.00,,---,0.00,VWS V14.01,2013-08-15 23:56:00,
2013-08-15 19:01:00,84.8,66.8,29.92,ESE,114,3.0,5.0,55,0.00,,---,0.00,VWS V14.01,2013-08-16 00:01:00,
2013-08-15 19:06:00,84.7,66.2,29.92,ESE,119,2.0,3.0,54,0.00,,---,0.00,VWS V14.01,2013-08-16 00:06:00,
2013-08-15 19:12:00,84.7,66.8,29.92,ESE,117,2.0,4.0,55,0.00,,---,0.00,VWS V14.01,2013-08-16 00:12:00,
2013-08-15 19:17:00,84.6,66.7,29.92,ESE,115,0.0,3.0,55,0.00,,---,0.00,VWS V14.01,2013-08-16 00:17:00,
2013-08-15 19:22:00,84.4,65.9,29.92,East,94,1.0,9.0,54,0.00,,---,0.00,VWS V14.01,2013-08-16 00:22:00,
2013-08-15 19:27:00,84.2,65.8,29.92,East,93,2.0,2.0,54,0.00,,---,0.00,VWS V14.01,2013-08-16 00:27:00,
2013-08-15 19:32:00,84.1,65.7,29.93,East,98,0.0,3.0,54,0.00,,---,0.00,VWS V14.01,2013-08-16 00:32:00,
2013-08-15 19:37:00,83.9,65.5,29.92,ESE,119,2.0,5.0,54,0.00,,---,0.00,VWS V14.01,2013-08-16 00:37:00,
2013-08-15 19:43:00,83.6,65.7,29.92,East,101,3.0,3.0,55,0.00,,---,0.00,VWS V14.01,2013-08-16 00:43:00,
2013-08-15 19:48:00,83.3,66.0,29.92,ESE,105,0.0,0.0,56,0.00,,---,0.00,VWS V14.01,2013-08-16 00:48:00,
2013-08-15 19:53:00,82.9,66.1,29.92,ESE,106,0.0,1.0,57,0.00,,---,0.00,VWS V14.01,2013-08-16 00:53:00,
2013-08-15 19:58:00,82.6,65.8,29.92,ESE,106,2.0,2.0,57,0.00,,---,0.00,VWS V14.01,2013-08-16 00:58:00,
2013-08-15 20:03:00,82.3,66.1,29.92,ESE,106,0.0,1.0,58,0.00,,---,0.00,VWS V14.01,2013-08-16 01:03:00,
2013-08-15 20:08:00,82.1,65.4,29.92,ESE,106,0.0,0.0,57,0.00,,---,0.00,VWS V14.01,2013-08-16 01:08:00,
2013-08-15 20:14:00,81.9,65.7,29.92,ESE,106,0.0,0.0,58,0.00,,---,0.00,VWS V14.01,2013-08-16 01:14:00,
2013-08-15 20:19:00,81.8,65.6,29.92,ESE,106,0.0,0.0,58,0.00,,---,0.00,VWS V14.01,2013-08-16 01:19:00,
2013-08-15 20:24:00,81.6,65.4,29.92,ESE,106,0.0,0.0,58,0.00,,---,0.00,VWS V14.01,2013-08-16 01:24:00,
2013-08-15 20:29:00,81.5,65.3,29.93,ESE,106,0.0,0.0,58,0.00,,---,0.00,VWS V14.01,2013-08-16 01:29:00,
2013-08-15 20:35:00,81.3,66.1,29.92,ESE,106,0.0,0.0,60,0.00,,---,0.00,VWS V14.01,2013-08-16 01:35:00,
2013-08-15 20:40:00,81.0,66.8,29.92,ESE,106,0.0,0.0,62,0.00,,---,0.00,VWS V14.01,2013-08-16 01:40:00,
2013-08-15 20:45:00,80.4,65.7,29.92,ESE,106,0.0,0.0,61,0.00,,---,0.00,VWS V14.01,2013-08-16 01:45:00,
2013-08-15 20:50:00,80.2,66.0,29.92,ESE,106,0.0,0.0,62,0.00,,---,0.00,VWS V14.01,2013-08-16 01:50:00,
2013-08-15 20:56:00,80.0,65.8,29.93,ESE,106,0.0,0.0,62,0.00,,---,0.00,VWS V14.01,2013-08-16 01:56:00,
2013-08-15 21:01:00,79.8,65.6,29.93,ESE,106,0.0,0.0,62,0.00,,---,0.00,VWS V14.01,2013-08-16 02:01:00,
2013-08-15 21:06:00,79.5,66.3,29.92,ESE,106,0.0,0.0,64,0.00,,---,0.00,VWS V14.01,2013-08-16 02:06:00,
2013-08-15 21:11:00,79.1,65.9,29.92,ESE,106,0.0,0.0,64,0.00,,---,0.00,VWS V14.01,2013-08-16 02:11:00,
2013-08-15 21:16:00,79.0,66.2,29.92,ESE,106,0.0,0.0,65,0.00,,---,0.00,VWS V14.01,2013-08-16 02:16:00,
2013-08-15 21:21:00,78.9,66.2,29.91,ESE,107,2.0,3.0,65,0.00,,---,0.00,VWS V14.01,2013-08-16 02:21:00,
2013-08-15 21:26:00,79.0,66.7,29.92,ESE,115,1.0,4.0,66,0.00,,---,0.00,VWS V14.01,2013-08-16 02:26:00,
2013-08-15 21:31:00,78.9,66.6,29.92,ESE,114,0.0,1.0,66,0.00,,---,0.00,VWS V14.01,2013-08-16 02:31:00,
2013-08-15 21:36:00,78.9,66.6,29.94,ESE,114,0.0,0.0,66,0.00,,---,0.00,VWS V14.01,2013-08-16 02:36:00,
2013-08-15 21:41:00,79.0,66.7,29.94,ESE,114,0.0,0.0,66,0.00,,---,0.00,VWS V14.01,2013-08-16 02:41:00,
2013-08-15 21:46:00,79.0,66.2,29.95,ESE,114,0.0,0.0,65,0.00,,---,0.00,VWS V14.01,2013-08-16 02:46:00,
2013-08-15 21:51:00,79.0,66.7,29.95,ENE,73,0.0,3.0,66,0.00,,---,0.00,VWS V14.01,2013-08-16 02:51:00,
2013-08-15 21:56:00,78.9,67.0,29.96,NNE,28,1.0,3.0,67,0.00,,---,0.00,VWS V14.01,2013-08-16 02:56:00,
2013-08-15 22:01:00,78.9,66.6,29.96,NNE,28,0.0,4.0,66,0.00,,---,0.00,VWS V14.01,2013-08-16 03:01:00,
2013-08-15 22:07:00,78.7,66.4,29.96,NE,46,0.0,2.0,66,0.00,,---,0.00,VWS V14.01,2013-08-16 03:07:00,
2013-08-15 22:12:00,78.7,66.0,29.96,East,90,0.0,2.0,65,0.00,,---,0.00,VWS V14.01,2013-08-16 03:12:00,
2013-08-15 22:17:00,78.9,66.2,29.96,East,89,0.0,0.0,65,0.00,,---,0.00,VWS V14.01,2013-08-16 03:17:00,
2013-08-15 22:22:00,79.1,65.9,29.96,East,89,0.0,0.0,64,0.00,,---,0.00,VWS V14.01,2013-08-16 03:22:00,
2013-08-15 22:27:00,79.2,66.0,29.96,East,89,0.0,0.0,64,0.00,,---,0.00,VWS V14.01,2013-08-16 03:27:00,
2013-08-15 22:32:00,79.2,66.0,29.96,East,89,0.0,0.0,64,0.00,,---,0.00,VWS V14.01,2013-08-16 03:32:00,
2013-08-15 22:37:00,79.2,65.5,29.96,East,89,0.0,0.0,63,0.00,,---,0.00,VWS V14.01,2013-08-16 03:37:00,
2013-08-15 22:42:00,79.2,65.5,29.96,East,89,0.0,0.0,63,0.00,,---,0.00,VWS V14.01,2013-08-16 03:42:00,
2013-08-15 22:47:00,79.1,65.9,29.95,East,89,0.0,0.0,64,0.00,,---,0.00,VWS V14.01,2013-08-16 03:47:00,
2013-08-15 22:52:00,78.9,65.7,29.95,East,89,0.0,0.0,64,0.00,,---,0.00,VWS V14.01,2013-08-16 03:52:00,
2013-08-15 22:57:00,78.7,66.0,29.95,East,89,0.0,0.0,65,0.00,,---,0.00,VWS V14.01,2013-08-16 03:57:00,
2013-08-15 23:01:00,78.6,65.9,29.95,East,89,0.0,0.0,65,0.00,,---,0.00,VWS V14.01,2013-08-16 04:01:00,
2013-08-15 23:02:00,78.6,65.9,29.95,East,94,0.0,0.0,65,0.00,,---,0.00,VWS V14.01,2013-08-16 04:02:00,
2013-08-15 23:07:00,78.4,65.7,29.95,East,95,0.0,5.0,65,0.00,,---,0.00,VWS V14.01,2013-08-16 04:07:00,
2013-08-15 23:12:00,78.4,66.1,29.95,East,95,0.0,0.0,66,0.00,,---,0.00,VWS V14.01,2013-08-16 04:12:00,
2013-08-15 23:17:00,78.2,65.9,29.95,East,95,0.0,0.0,66,0.00,,---,0.00,VWS V14.01,2013-08-16 04:17:00,
2013-08-15 23:22:00,78.0,65.7,29.95,East,95,0.0,0.0,66,0.00,,---,0.00,VWS V14.01,2013-08-16 04:22:00,
2013-08-15 23:27:00,77.9,66.1,29.95,East,95,0.0,0.0,67,0.00,,---,0.00,VWS V14.01,2013-08-16 04:27:00,
2013-08-15 23:32:00,77.8,66.0,29.95,East,95,0.0,0.0,67,0.00,,---,0.00,VWS V14.01,2013-08-16 04:32:00,
2013-08-15 23:37:00,77.6,65.8,29.95,East,95,0.0,0.0,67,0.00,,---,0.00,VWS V14.01,2013-08-16 04:37:00,
2013-08-15 23:42:00,77.8,65.5,29.95,East,95,0.0,0.0,66,0.00,,---,0.00,VWS V14.01,2013-08-16 04:42:00,
2013-08-15 23:48:00,78.0,65.7,29.95,East,95,0.0,0.0,66,0.00,,---,0.00,VWS V14.01,2013-08-16 04:48:00,
2013-08-15 23:53:00,78.0,66.6,29.96,East,95,0.0,0.0,68,0.00,,---,0.00,VWS V14.01,2013-08-16 04:53:00,
2013-08-15 23:58:00,77.4,66.4,29.96,East,95,0.0,0.0,69,0.00,,---,0.00,VWS V14.01,2013-08-16 04:58:00,